sensor_id;sensor_type;location;lat;lon;timestamp;P1;durP1;ratioP1;P2;durP2;ratioP2
75548;SDS011;64133;56.002;37.208;2023-08-07T00:00:37;6.90;;;4.72;;
75548;SDS011;64133;56.002;37.208;2023-08-07T00:05:44;10.68;;;5.53;;
75548;SDS011;64133;56.002;37.208;2023-08-07T00:10:48;7.80;;;4.83;;
75548;SDS011;64133;56.002;37.208;2023-08-07T00:15:53;7.85;;;5.10;;
75548;SDS011;64133;56.002;37.208;2023-08-07T00:20:57;11.38;;;5.70;;
75548;SDS011;64133;56.002;37.208;2023-08-07T00:26:02;7.85;;;4.67;;
75548;SDS011;64133;56.002;37.208;2023-08-07T00:31:07;9.35;;;4.75;;
75548;SDS011;64133;56.002;37.208;2023-08-07T00:36:11;7.58;;;4.92;;
75548;SDS011;64133;56.002;37.208;2023-08-07T00:41:17;7.00;;;5.08;;
75548;SDS011;64133;56.002;37.208;2023-08-07T00:46:21;8.23;;;4.50;;
75548;SDS011;64133;56.002;37.208;2023-08-07T00:51:26;6.90;;;4.45;;
75548;SDS011;64133;56.002;37.208;2023-08-07T00:56:30;8.48;;;4.97;;
75548;SDS011;64133;56.002;37.208;2023-08-07T01:01:35;10.32;;;4.17;;
75548;SDS011;64133;56.002;37.208;2023-08-07T01:06:40;7.65;;;4.80;;
75548;SDS011;64133;56.002;37.208;2023-08-07T01:11:46;8.63;;;4.58;;
75548;SDS011;64133;56.002;37.208;2023-08-07T01:16:50;6.17;;;4.35;;
75548;SDS011;64133;56.002;37.208;2023-08-07T01:22:07;6.87;;;4.40;;
75548;SDS011;64133;56.002;37.208;2023-08-07T01:27:15;6.03;;;4.12;;
75548;SDS011;64133;56.002;37.208;2023-08-07T01:32:21;7.95;;;4.22;;
75548;SDS011;64133;56.002;37.208;2023-08-07T01:37:24;9.28;;;4.67;;
75548;SDS011;64133;56.002;37.208;2023-08-07T01:42:29;7.08;;;4.28;;
75548;SDS011;64133;56.002;37.208;2023-08-07T01:47:34;8.65;;;4.65;;
75548;SDS011;64133;56.002;37.208;2023-08-07T01:52:39;7.50;;;4.28;;
75548;SDS011;64133;56.002;37.208;2023-08-07T01:57:44;7.15;;;4.45;;
75548;SDS011;64133;56.002;37.208;2023-08-07T02:02:48;6.92;;;4.47;;
75548;SDS011;64133;56.002;37.208;2023-08-07T02:07:53;10.28;;;4.03;;
75548;SDS011;64133;56.002;37.208;2023-08-07T02:12:58;5.45;;;4.28;;
75548;SDS011;64133;56.002;37.208;2023-08-07T02:18:03;6.40;;;4.20;;
75548;SDS011;64133;56.002;37.208;2023-08-07T02:23:08;8.08;;;4.33;;
75548;SDS011;64133;56.002;37.208;2023-08-07T02:28:12;6.28;;;4.20;;
75548;SDS011;64133;56.002;37.208;2023-08-07T02:33:17;7.12;;;3.80;;
75548;SDS011;64133;56.002;37.208;2023-08-07T02:38:22;7.80;;;4.37;;
75548;SDS011;64133;56.002;37.208;2023-08-07T02:43:26;5.20;;;4.05;;
75548;SDS011;64133;56.002;37.208;2023-08-07T02:48:31;5.22;;;4.00;;
75548;SDS011;64133;56.002;37.208;2023-08-07T02:53:35;6.45;;;3.98;;
75548;SDS011;64133;56.002;37.208;2023-08-07T02:58:40;8.73;;;4.28;;
75548;SDS011;64133;56.002;37.208;2023-08-07T03:03:45;4.67;;;4.05;;
75548;SDS011;64133;56.002;37.208;2023-08-07T03:08:50;8.30;;;4.30;;
75548;SDS011;64133;56.002;37.208;2023-08-07T03:13:54;8.70;;;4.53;;
75548;SDS011;64133;56.002;37.208;2023-08-07T03:18:59;6.28;;;4.60;;
75548;SDS011;64133;56.002;37.208;2023-08-07T03:24:04;9.35;;;4.28;;
75548;SDS011;64133;56.002;37.208;2023-08-07T03:29:09;6.03;;;4.05;;
75548;SDS011;64133;56.002;37.208;2023-08-07T03:34:13;6.30;;;4.47;;
75548;SDS011;64133;56.002;37.208;2023-08-07T03:39:18;6.87;;;4.45;;
75548;SDS011;64133;56.002;37.208;2023-08-07T03:44:23;8.10;;;3.60;;
75548;SDS011;64133;56.002;37.208;2023-08-07T03:49:27;7.67;;;4.20;;
75548;SDS011;64133;56.002;37.208;2023-08-07T03:54:32;10.90;;;4.55;;
75548;SDS011;64133;56.002;37.208;2023-08-07T03:59:37;7.12;;;4.40;;
75548;SDS011;64133;56.002;37.208;2023-08-07T04:04:41;6.60;;;3.75;;
75548;SDS011;64133;56.002;37.208;2023-08-07T04:09:46;6.70;;;4.05;;
75548;SDS011;64133;56.002;37.208;2023-08-07T04:14:51;6.05;;;3.77;;
75548;SDS011;64133;56.002;37.208;2023-08-07T04:19:55;8.48;;;4.15;;
75548;SDS011;64133;56.002;37.208;2023-08-07T04:25:00;9.05;;;4.65;;
75548;SDS011;64133;56.002;37.208;2023-08-07T04:30:06;5.85;;;3.40;;
75548;SDS011;64133;56.002;37.208;2023-08-07T04:35:11;5.65;;;3.30;;
75548;SDS011;64133;56.002;37.208;2023-08-07T04:40:16;8.25;;;3.80;;
75548;SDS011;64133;56.002;37.208;2023-08-07T04:45:21;5.37;;;3.75;;
75548;SDS011;64133;56.002;37.208;2023-08-07T04:50:25;6.55;;;3.55;;
75548;SDS011;64133;56.002;37.208;2023-08-07T04:55:30;5.97;;;3.52;;
75548;SDS011;64133;56.002;37.208;2023-08-07T05:00:35;4.55;;;3.40;;
75548;SDS011;64133;56.002;37.208;2023-08-07T05:05:40;6.35;;;3.42;;
75548;SDS011;64133;56.002;37.208;2023-08-07T05:10:44;10.10;;;3.50;;
75548;SDS011;64133;56.002;37.208;2023-08-07T05:15:49;7.33;;;3.87;;
75548;SDS011;64133;56.002;37.208;2023-08-07T05:20:54;4.55;;;2.95;;
75548;SDS011;64133;56.002;37.208;2023-08-07T05:25:58;4.92;;;3.08;;
75548;SDS011;64133;56.002;37.208;2023-08-07T05:31:03;4.17;;;2.62;;
75548;SDS011;64133;56.002;37.208;2023-08-07T05:36:08;5.80;;;3.37;;
75548;SDS011;64133;56.002;37.208;2023-08-07T05:41:12;5.83;;;3.00;;
75548;SDS011;64133;56.002;37.208;2023-08-07T05:46:17;8.23;;;3.37;;
75548;SDS011;64133;56.002;37.208;2023-08-07T05:51:22;8.85;;;2.67;;
75548;SDS011;64133;56.002;37.208;2023-08-07T05:56:26;5.15;;;2.92;;
75548;SDS011;64133;56.002;37.208;2023-08-07T06:01:31;5.30;;;2.37;;
75548;SDS011;64133;56.002;37.208;2023-08-07T06:06:36;5.95;;;2.65;;
75548;SDS011;64133;56.002;37.208;2023-08-07T06:11:40;7.72;;;2.55;;
75548;SDS011;64133;56.002;37.208;2023-08-07T06:16:45;10.43;;;3.10;;
75548;SDS011;64133;56.002;37.208;2023-08-07T06:21:50;5.37;;;2.30;;
75548;SDS011;64133;56.002;37.208;2023-08-07T06:26:54;3.40;;;2.15;;
75548;SDS011;64133;56.002;37.208;2023-08-07T06:31:59;5.00;;;2.22;;
75548;SDS011;64133;56.002;37.208;2023-08-07T06:37:05;6.45;;;2.65;;
75548;SDS011;64133;56.002;37.208;2023-08-07T06:42:10;6.45;;;2.45;;
75548;SDS011;64133;56.002;37.208;2023-08-07T06:47:14;4.62;;;2.75;;
75548;SDS011;64133;56.002;37.208;2023-08-07T06:52:19;4.17;;;2.17;;
75548;SDS011;64133;56.002;37.208;2023-08-07T06:57:24;5.30;;;3.30;;
75548;SDS011;64133;56.002;37.208;2023-08-07T07:02:28;2.98;;;1.85;;
75548;SDS011;64133;56.002;37.208;2023-08-07T07:07:34;5.30;;;2.50;;
75548;SDS011;64133;56.002;37.208;2023-08-07T07:12:38;4.85;;;2.05;;
75548;SDS011;64133;56.002;37.208;2023-08-07T07:17:43;4.15;;;1.95;;
75548;SDS011;64133;56.002;37.208;2023-08-07T07:22:47;5.78;;;2.58;;
75548;SDS011;64133;56.002;37.208;2023-08-07T07:27:52;3.52;;;2.00;;
75548;SDS011;64133;56.002;37.208;2023-08-07T07:32:57;3.25;;;2.08;;
75548;SDS011;64133;56.002;37.208;2023-08-07T07:38:01;3.70;;;2.00;;
75548;SDS011;64133;56.002;37.208;2023-08-07T07:43:06;5.70;;;2.27;;
75548;SDS011;64133;56.002;37.208;2023-08-07T07:48:11;3.60;;;2.33;;
75548;SDS011;64133;56.002;37.208;2023-08-07T07:53:16;6.35;;;1.95;;
75548;SDS011;64133;56.002;37.208;2023-08-07T07:58:20;5.10;;;1.62;;
75548;SDS011;64133;56.002;37.208;2023-08-07T08:03:25;4.00;;;2.00;;
75548;SDS011;64133;56.002;37.208;2023-08-07T08:08:30;5.37;;;1.77;;
75548;SDS011;64133;56.002;37.208;2023-08-07T08:13:34;5.85;;;2.27;;
75548;SDS011;64133;56.002;37.208;2023-08-07T08:18:39;5.72;;;1.70;;
75548;SDS011;64133;56.002;37.208;2023-08-07T08:23:44;6.20;;;3.35;;
75548;SDS011;64133;56.002;37.208;2023-08-07T08:28:49;4.22;;;1.98;;
75548;SDS011;64133;56.002;37.208;2023-08-07T08:33:53;7.75;;;2.47;;
75548;SDS011;64133;56.002;37.208;2023-08-07T08:39:01;7.03;;;1.87;;
75548;SDS011;64133;56.002;37.208;2023-08-07T08:44:06;5.05;;;1.77;;
75548;SDS011;64133;56.002;37.208;2023-08-07T08:49:10;3.72;;;1.80;;
75548;SDS011;64133;56.002;37.208;2023-08-07T08:54:15;5.47;;;1.90;;
75548;SDS011;64133;56.002;37.208;2023-08-07T08:59:20;5.97;;;2.15;;
75548;SDS011;64133;56.002;37.208;2023-08-07T09:04:24;4.47;;;1.82;;
75548;SDS011;64133;56.002;37.208;2023-08-07T09:09:29;3.85;;;1.75;;
75548;SDS011;64133;56.002;37.208;2023-08-07T09:14:34;9.78;;;2.10;;
75548;SDS011;64133;56.002;37.208;2023-08-07T09:19:38;4.42;;;1.75;;
75548;SDS011;64133;56.002;37.208;2023-08-07T09:24:43;4.95;;;2.37;;
75548;SDS011;64133;56.002;37.208;2023-08-07T09:29:48;3.40;;;2.02;;
75548;SDS011;64133;56.002;37.208;2023-08-07T09:34:52;7.90;;;2.47;;
75548;SDS011;64133;56.002;37.208;2023-08-07T09:40:00;5.20;;;2.37;;
75548;SDS011;64133;56.002;37.208;2023-08-07T09:45:09;4.08;;;1.80;;
75548;SDS011;64133;56.002;37.208;2023-08-07T09:50:24;4.45;;;2.20;;
75548;SDS011;64133;56.002;37.208;2023-08-07T09:55:28;3.20;;;1.80;;
75548;SDS011;64133;56.002;37.208;2023-08-07T10:00:34;3.58;;;2.20;;
75548;SDS011;64133;56.002;37.208;2023-08-07T10:05:39;3.83;;;1.57;;
75548;SDS011;64133;56.002;37.208;2023-08-07T10:10:43;4.80;;;1.72;;
75548;SDS011;64133;56.002;37.208;2023-08-07T10:15:57;2.87;;;1.52;;
75548;SDS011;64133;56.002;37.208;2023-08-07T10:21:03;2.80;;;1.72;;
75548;SDS011;64133;56.002;37.208;2023-08-07T10:26:07;11.75;;;2.52;;
75548;SDS011;64133;56.002;37.208;2023-08-07T10:31:11;7.05;;;2.08;;
75548;SDS011;64133;56.002;37.208;2023-08-07T10:36:17;3.62;;;2.00;;
75548;SDS011;64133;56.002;37.208;2023-08-07T10:41:21;4.58;;;2.35;;
75548;SDS011;64133;56.002;37.208;2023-08-07T10:46:26;2.60;;;2.00;;
75548;SDS011;64133;56.002;37.208;2023-08-07T10:51:31;3.30;;;1.60;;
75548;SDS011;64133;56.002;37.208;2023-08-07T10:56:36;5.78;;;2.52;;
75548;SDS011;64133;56.002;37.208;2023-08-07T11:01:41;4.28;;;1.90;;
75548;SDS011;64133;56.002;37.208;2023-08-07T11:06:47;3.92;;;1.77;;
75548;SDS011;64133;56.002;37.208;2023-08-07T11:11:52;3.60;;;2.17;;
75548;SDS011;64133;56.002;37.208;2023-08-07T11:16:57;3.72;;;2.20;;
75548;SDS011;64133;56.002;37.208;2023-08-07T11:22:01;8.68;;;3.12;;
75548;SDS011;64133;56.002;37.208;2023-08-07T11:27:07;3.65;;;2.00;;
75548;SDS011;64133;56.002;37.208;2023-08-07T11:32:11;7.03;;;3.27;;
75548;SDS011;64133;56.002;37.208;2023-08-07T11:37:19;3.90;;;2.20;;
75548;SDS011;64133;56.002;37.208;2023-08-07T11:42:31;5.20;;;2.15;;
75548;SDS011;64133;56.002;37.208;2023-08-07T11:47:39;6.37;;;2.40;;
75548;SDS011;64133;56.002;37.208;2023-08-07T11:52:44;4.15;;;2.15;;
75548;SDS011;64133;56.002;37.208;2023-08-07T11:57:49;2.85;;;1.80;;
75548;SDS011;64133;56.002;37.208;2023-08-07T12:02:54;2.98;;;1.85;;
75548;SDS011;64133;56.002;37.208;2023-08-07T12:07:58;4.87;;;1.98;;
75548;SDS011;64133;56.002;37.208;2023-08-07T12:13:03;3.52;;;2.37;;
75548;SDS011;64133;56.002;37.208;2023-08-07T12:18:08;7.58;;;2.25;;
75548;SDS011;64133;56.002;37.208;2023-08-07T12:23:15;6.62;;;2.30;;
75548;SDS011;64133;56.002;37.208;2023-08-07T12:28:19;4.28;;;2.27;;
75548;SDS011;64133;56.002;37.208;2023-08-07T12:33:24;4.95;;;2.12;;
75548;SDS011;64133;56.002;37.208;2023-08-07T12:38:29;3.50;;;1.90;;
75548;SDS011;64133;56.002;37.208;2023-08-07T12:43:34;3.52;;;1.85;;
75548;SDS011;64133;56.002;37.208;2023-08-07T12:48:39;2.87;;;1.92;;
75548;SDS011;64133;56.002;37.208;2023-08-07T12:53:43;4.15;;;2.02;;
75548;SDS011;64133;56.002;37.208;2023-08-07T12:58:48;6.95;;;1.80;;
75548;SDS011;64133;56.002;37.208;2023-08-07T13:03:53;2.85;;;1.92;;
75548;SDS011;64133;56.002;37.208;2023-08-07T13:08:58;6.58;;;2.45;;
75548;SDS011;64133;56.002;37.208;2023-08-07T13:14:03;3.90;;;1.85;;
75548;SDS011;64133;56.002;37.208;2023-08-07T13:19:08;4.75;;;1.90;;
75548;SDS011;64133;56.002;37.208;2023-08-07T13:24:13;4.65;;;2.10;;
75548;SDS011;64133;56.002;37.208;2023-08-07T13:29:17;2.05;;;1.50;;
75548;SDS011;64133;56.002;37.208;2023-08-07T13:34:22;3.92;;;2.15;;
75548;SDS011;64133;56.002;37.208;2023-08-07T13:39:27;2.85;;;1.52;;
75548;SDS011;64133;56.002;37.208;2023-08-07T13:44:32;5.85;;;2.17;;
75548;SDS011;64133;56.002;37.208;2023-08-07T13:49:37;3.98;;;2.05;;
75548;SDS011;64133;56.002;37.208;2023-08-07T13:54:42;4.00;;;1.65;;
75548;SDS011;64133;56.002;37.208;2023-08-07T13:59:46;2.58;;;1.72;;
75548;SDS011;64133;56.002;37.208;2023-08-07T14:04:51;4.22;;;1.90;;
75548;SDS011;64133;56.002;37.208;2023-08-07T14:09:56;3.45;;;2.35;;
75548;SDS011;64133;56.002;37.208;2023-08-07T14:15:01;4.87;;;2.02;;
75548;SDS011;64133;56.002;37.208;2023-08-07T14:20:07;5.45;;;2.15;;
75548;SDS011;64133;56.002;37.208;2023-08-07T14:25:13;4.25;;;1.95;;
75548;SDS011;64133;56.002;37.208;2023-08-07T14:30:18;6.80;;;2.67;;
75548;SDS011;64133;56.002;37.208;2023-08-07T14:35:23;5.72;;;2.62;;
75548;SDS011;64133;56.002;37.208;2023-08-07T14:40:27;4.53;;;2.40;;
75548;SDS011;64133;56.002;37.208;2023-08-07T14:45:32;6.90;;;2.70;;
75548;SDS011;64133;56.002;37.208;2023-08-07T14:50:37;4.97;;;2.55;;
75548;SDS011;64133;56.002;37.208;2023-08-07T14:55:42;4.25;;;2.60;;
75548;SDS011;64133;56.002;37.208;2023-08-07T15:00:48;4.58;;;2.80;;
75548;SDS011;64133;56.002;37.208;2023-08-07T15:05:52;3.85;;;3.42;;
75548;SDS011;64133;56.002;37.208;2023-08-07T15:10:57;4.85;;;2.85;;
75548;SDS011;64133;56.002;37.208;2023-08-07T15:16:02;4.90;;;3.20;;
75548;SDS011;64133;56.002;37.208;2023-08-07T15:21:07;4.83;;;2.77;;
75548;SDS011;64133;56.002;37.208;2023-08-07T15:26:12;8.13;;;2.25;;
75548;SDS011;64133;56.002;37.208;2023-08-07T15:31:17;4.20;;;2.95;;
75548;SDS011;64133;56.002;37.208;2023-08-07T15:36:21;9.53;;;2.87;;
75548;SDS011;64133;56.002;37.208;2023-08-07T15:41:26;3.58;;;2.30;;
75548;SDS011;64133;56.002;37.208;2023-08-07T15:46:31;4.37;;;2.30;;
75548;SDS011;64133;56.002;37.208;2023-08-07T15:51:36;7.92;;;2.50;;
75548;SDS011;64133;56.002;37.208;2023-08-07T15:56:41;5.10;;;2.87;;
75548;SDS011;64133;56.002;37.208;2023-08-07T16:01:45;2.92;;;2.22;;
75548;SDS011;64133;56.002;37.208;2023-08-07T16:06:50;6.30;;;2.37;;
75548;SDS011;64133;56.002;37.208;2023-08-07T16:11:55;4.55;;;2.58;;
75548;SDS011;64133;56.002;37.208;2023-08-07T16:17:00;3.92;;;2.52;;
75548;SDS011;64133;56.002;37.208;2023-08-07T16:22:07;4.55;;;2.30;;
75548;SDS011;64133;56.002;37.208;2023-08-07T16:27:12;4.80;;;2.20;;
75548;SDS011;64133;56.002;37.208;2023-08-07T16:32:17;4.85;;;3.35;;
75548;SDS011;64133;56.002;37.208;2023-08-07T16:37:22;5.17;;;2.65;;
75548;SDS011;64133;56.002;37.208;2023-08-07T16:42:27;9.85;;;2.87;;
75548;SDS011;64133;56.002;37.208;2023-08-07T16:47:32;8.30;;;3.08;;
75548;SDS011;64133;56.002;37.208;2023-08-07T16:52:36;5.62;;;2.55;;
75548;SDS011;64133;56.002;37.208;2023-08-07T16:57:41;6.78;;;1.92;;
75548;SDS011;64133;56.002;37.208;2023-08-07T17:02:46;5.83;;;2.40;;
75548;SDS011;64133;56.002;37.208;2023-08-07T17:07:51;3.25;;;2.50;;
75548;SDS011;64133;56.002;37.208;2023-08-07T17:12:56;5.78;;;2.35;;
75548;SDS011;64133;56.002;37.208;2023-08-07T17:18:01;3.85;;;2.83;;
75548;SDS011;64133;56.002;37.208;2023-08-07T17:23:05;4.97;;;2.95;;
75548;SDS011;64133;56.002;37.208;2023-08-07T17:28:10;3.95;;;2.27;;
75548;SDS011;64133;56.002;37.208;2023-08-07T17:33:15;5.17;;;2.20;;
75548;SDS011;64133;56.002;37.208;2023-08-07T17:38:20;4.53;;;2.15;;
75548;SDS011;64133;56.002;37.208;2023-08-07T17:43:25;3.42;;;2.10;;
75548;SDS011;64133;56.002;37.208;2023-08-07T17:48:30;3.70;;;2.05;;
75548;SDS011;64133;56.002;37.208;2023-08-07T17:53:35;3.60;;;2.30;;
75548;SDS011;64133;56.002;37.208;2023-08-07T17:58:39;4.12;;;2.33;;
75548;SDS011;64133;56.002;37.208;2023-08-07T18:03:44;5.80;;;2.85;;
75548;SDS011;64133;56.002;37.208;2023-08-07T18:08:49;3.02;;;2.25;;
75548;SDS011;64133;56.002;37.208;2023-08-07T18:13:54;3.02;;;2.22;;
75548;SDS011;64133;56.002;37.208;2023-08-07T18:18:59;6.80;;;2.87;;
75548;SDS011;64133;56.002;37.208;2023-08-07T18:24:04;5.47;;;3.15;;
75548;SDS011;64133;56.002;37.208;2023-08-07T18:29:09;4.58;;;2.58;;
75548;SDS011;64133;56.002;37.208;2023-08-07T18:34:13;5.75;;;2.33;;
75548;SDS011;64133;56.002;37.208;2023-08-07T18:39:19;4.22;;;2.30;;
75548;SDS011;64133;56.002;37.208;2023-08-07T18:44:24;9.98;;;2.90;;
75548;SDS011;64133;56.002;37.208;2023-08-07T18:49:29;7.45;;;2.77;;
75548;SDS011;64133;56.002;37.208;2023-08-07T18:54:34;5.97;;;2.47;;
75548;SDS011;64133;56.002;37.208;2023-08-07T18:59:40;5.62;;;2.92;;
75548;SDS011;64133;56.002;37.208;2023-08-07T19:04:45;3.83;;;2.10;;
75548;SDS011;64133;56.002;37.208;2023-08-07T19:09:49;3.92;;;2.75;;
75548;SDS011;64133;56.002;37.208;2023-08-07T19:14:54;8.28;;;2.70;;
75548;SDS011;64133;56.002;37.208;2023-08-07T19:19:59;5.03;;;2.47;;
75548;SDS011;64133;56.002;37.208;2023-08-07T19:25:04;5.28;;;3.10;;
75548;SDS011;64133;56.002;37.208;2023-08-07T19:30:11;6.90;;;2.15;;
75548;SDS011;64133;56.002;37.208;2023-08-07T19:35:15;4.75;;;2.92;;
75548;SDS011;64133;56.002;37.208;2023-08-07T19:40:20;4.53;;;2.20;;
75548;SDS011;64133;56.002;37.208;2023-08-07T19:45:26;4.15;;;2.60;;
75548;SDS011;64133;56.002;37.208;2023-08-07T19:50:30;4.85;;;2.70;;
75548;SDS011;64133;56.002;37.208;2023-08-07T19:55:35;4.60;;;2.58;;
75548;SDS011;64133;56.002;37.208;2023-08-07T20:00:40;3.67;;;2.92;;
75548;SDS011;64133;56.002;37.208;2023-08-07T20:05:45;4.83;;;2.52;;
75548;SDS011;64133;56.002;37.208;2023-08-07T20:10:49;5.72;;;2.85;;
75548;SDS011;64133;56.002;37.208;2023-08-07T20:15:54;5.90;;;2.62;;
75548;SDS011;64133;56.002;37.208;2023-08-07T20:20:59;4.25;;;3.25;;
75548;SDS011;64133;56.002;37.208;2023-08-07T20:26:03;7.20;;;2.90;;
75548;SDS011;64133;56.002;37.208;2023-08-07T20:31:08;4.92;;;2.70;;
75548;SDS011;64133;56.002;37.208;2023-08-07T20:36:13;7.37;;;2.83;;
75548;SDS011;64133;56.002;37.208;2023-08-07T20:41:17;4.05;;;2.45;;
75548;SDS011;64133;56.002;37.208;2023-08-07T20:46:22;3.85;;;2.98;;
75548;SDS011;64133;56.002;37.208;2023-08-07T20:51:27;10.18;;;2.72;;
75548;SDS011;64133;56.002;37.208;2023-08-07T20:56:31;5.72;;;2.85;;
75548;SDS011;64133;56.002;37.208;2023-08-07T21:01:36;4.67;;;2.95;;
75548;SDS011;64133;56.002;37.208;2023-08-07T21:06:42;3.37;;;2.20;;
75548;SDS011;64133;56.002;37.208;2023-08-07T21:11:46;3.45;;;2.60;;
75548;SDS011;64133;56.002;37.208;2023-08-07T21:16:51;3.00;;;2.58;;
75548;SDS011;64133;56.002;37.208;2023-08-07T21:21:56;8.10;;;2.70;;
75548;SDS011;64133;56.002;37.208;2023-08-07T21:27:01;3.40;;;2.05;;
75548;SDS011;64133;56.002;37.208;2023-08-07T21:32:08;3.72;;;2.87;;
75548;SDS011;64133;56.002;37.208;2023-08-07T21:42:16;3.67;;;2.35;;
75548;SDS011;64133;56.002;37.208;2023-08-07T21:47:21;3.70;;;2.87;;
75548;SDS011;64133;56.002;37.208;2023-08-07T21:52:32;4.72;;;2.50;;
75548;SDS011;64133;56.002;37.208;2023-08-07T21:57:36;4.67;;;2.52;;
75548;SDS011;64133;56.002;37.208;2023-08-07T22:02:41;7.97;;;2.50;;
75548;SDS011;64133;56.002;37.208;2023-08-07T22:07:46;5.67;;;2.37;;
75548;SDS011;64133;56.002;37.208;2023-08-07T22:12:50;3.00;;;2.40;;
75548;SDS011;64133;56.002;37.208;2023-08-07T22:17:55;5.42;;;2.83;;
75548;SDS011;64133;56.002;37.208;2023-08-07T22:23:00;3.55;;;2.58;;
75548;SDS011;64133;56.002;37.208;2023-08-07T22:28:05;3.75;;;2.80;;
75548;SDS011;64133;56.002;37.208;2023-08-07T22:33:10;4.95;;;2.40;;
75548;SDS011;64133;56.002;37.208;2023-08-07T22:38:14;4.22;;;2.60;;
75548;SDS011;64133;56.002;37.208;2023-08-07T22:43:19;5.12;;;2.90;;
75548;SDS011;64133;56.002;37.208;2023-08-07T22:48:24;2.98;;;2.35;;
75548;SDS011;64133;56.002;37.208;2023-08-07T22:53:28;4.42;;;2.60;;
75548;SDS011;64133;56.002;37.208;2023-08-07T22:58:33;3.92;;;2.45;;
75548;SDS011;64133;56.002;37.208;2023-08-07T23:03:38;3.83;;;2.35;;
75548;SDS011;64133;56.002;37.208;2023-08-07T23:08:42;3.77;;;2.50;;
75548;SDS011;64133;56.002;37.208;2023-08-07T23:13:47;5.70;;;2.65;;
75548;SDS011;64133;56.002;37.208;2023-08-07T23:18:52;5.00;;;2.10;;
75548;SDS011;64133;56.002;37.208;2023-08-07T23:23:56;2.92;;;2.00;;
75548;SDS011;64133;56.002;37.208;2023-08-07T23:29:01;2.87;;;2.17;;
75548;SDS011;64133;56.002;37.208;2023-08-07T23:34:06;4.35;;;2.25;;
75548;SDS011;64133;56.002;37.208;2023-08-07T23:39:10;3.35;;;2.27;;
75548;SDS011;64133;56.002;37.208;2023-08-07T23:44:16;4.25;;;2.42;;
75548;SDS011;64133;56.002;37.208;2023-08-07T23:49:21;5.72;;;2.30;;
75548;SDS011;64133;56.002;37.208;2023-08-07T23:54:26;2.83;;;2.17;;
75548;SDS011;64133;56.002;37.208;2023-08-07T23:59:30;3.02;;;2.35;;
